sensor_id;sensor_type;location;lat;lon;timestamp;pressure;altitude;pressure_sealevel;temperature;humidity
14041;BME280;7095;51.388;6.196;2023-05-07T00:01:16;113395.13;;;-145.32;100.00
14041;BME280;7095;51.388;6.196;2023-05-07T00:03:46;113395.13;;;-145.32;100.00
14041;BME280;7095;51.388;6.196;2023-05-07T00:06:15;113136.22;;;-145.32;100.00
14041;BME280;7095;51.388;6.196;2023-05-07T00:08:44;113136.22;;;-145.32;100.00
14041;BME280;7095;51.388;6.196;2023-05-07T00:11:13;112877.31;;;-145.32;100.00
14041;BME280;7095;51.388;6.196;2023-05-07T00:13:42;112618.41;;;-145.32;100.00
14041;BME280;7095;51.388;6.196;2023-05-07T00:16:11;112359.53;;;-145.32;100.00
14041;BME280;7095;51.388;6.196;2023-05-07T00:18:41;112359.53;;;-145.32;100.00
14041;BME280;7095;51.388;6.196;2023-05-07T00:21:10;112100.69;;;-145.32;100.00
14041;BME280;7095;51.388;6.196;2023-05-07T00:23:38;112100.69;;;-145.32;100.00
14041;BME280;7095;51.388;6.196;2023-05-07T00:26:07;112100.69;;;-145.32;100.00
14041;BME280;7095;51.388;6.196;2023-05-07T00:28:36;111841.88;;;-145.32;100.00
14041;BME280;7095;51.388;6.196;2023-05-07T00:31:05;112100.69;;;-145.32;100.00
14041;BME280;7095;51.388;6.196;2023-05-07T00:33:34;112100.69;;;-145.32;100.00
14041;BME280;7095;51.388;6.196;2023-05-07T00:36:05;112100.69;;;-145.32;100.00
14041;BME280;7095;51.388;6.196;2023-05-07T00:38:33;112359.53;;;-145.32;100.00
14041;BME280;7095;51.388;6.196;2023-05-07T00:41:02;112618.41;;;-145.32;100.00
14041;BME280;7095;51.388;6.196;2023-05-07T00:43:31;112877.31;;;-145.32;100.00
14041;BME280;7095;51.388;6.196;2023-05-07T00:46:00;112877.31;;;-145.32;100.00
14041;BME280;7095;51.388;6.196;2023-05-07T00:48:30;112877.31;;;-145.32;100.00
14041;BME280;7095;51.388;6.196;2023-05-07T00:50:59;113136.22;;;-145.32;100.00
14041;BME280;7095;51.388;6.196;2023-05-07T00:53:30;113395.13;;;-145.32;100.00
14041;BME280;7095;51.388;6.196;2023-05-07T00:55:59;113395.13;;;-145.32;100.00
14041;BME280;7095;51.388;6.196;2023-05-07T00:58:28;113654.06;;;-145.32;100.00
14041;BME280;7095;51.388;6.196;2023-05-07T01:00:57;113654.06;;;-145.32;100.00
14041;BME280;7095;51.388;6.196;2023-05-07T01:03:26;113913.03;;;-145.32;100.00
14041;BME280;7095;51.388;6.196;2023-05-07T01:05:57;113913.03;;;-145.32;100.00
14041;BME280;7095;51.388;6.196;2023-05-07T01:08:30;113913.03;;;-145.32;100.00
14041;BME280;7095;51.388;6.196;2023-05-07T01:11:03;113913.03;;;-145.32;100.00
14041;BME280;7095;51.388;6.196;2023-05-07T01:13:33;114172.03;;;-145.32;100.00
14041;BME280;7095;51.388;6.196;2023-05-07T01:16:04;114431.03;;;-145.32;100.00
14041;BME280;7095;51.388;6.196;2023-05-07T01:18:34;114431.03;;;-145.32;100.00
14041;BME280;7095;51.388;6.196;2023-05-07T01:21:04;114690.03;;;-145.32;100.00
14041;BME280;7095;51.388;6.196;2023-05-07T01:23:35;114690.03;;;-145.32;100.00
14041;BME280;7095;51.388;6.196;2023-05-07T01:26:04;114690.03;;;-145.32;100.00
14041;BME280;7095;51.388;6.196;2023-05-07T01:28:34;114690.03;;;-145.32;100.00
14041;BME280;7095;51.388;6.196;2023-05-07T01:31:03;114690.03;;;-145.32;100.00
14041;BME280;7095;51.388;6.196;2023-05-07T01:33:36;114690.03;;;-145.32;100.00
14041;BME280;7095;51.388;6.196;2023-05-07T01:36:08;114690.03;;;-145.32;100.00
14041;BME280;7095;51.388;6.196;2023-05-07T01:38:40;114690.03;;;-145.32;100.00
14041;BME280;7095;51.388;6.196;2023-05-07T01:41:10;114949.09;;;-145.32;100.00
14041;BME280;7095;51.388;6.196;2023-05-07T01:43:41;114949.09;;;-145.32;100.00
14041;BME280;7095;51.388;6.196;2023-05-07T01:46:12;114949.09;;;-145.32;100.00
14041;BME280;7095;51.388;6.196;2023-05-07T01:48:42;114949.09;;;-145.32;100.00
14041;BME280;7095;51.388;6.196;2023-05-07T01:51:13;115208.13;;;-145.32;100.00
14041;BME280;7095;51.388;6.196;2023-05-07T01:53:44;115208.13;;;-145.32;100.00
14041;BME280;7095;51.388;6.196;2023-05-07T01:56:15;114949.09;;;-145.32;100.00
14041;BME280;7095;51.388;6.196;2023-05-07T01:58:45;114949.09;;;-145.32;100.00
14041;BME280;7095;51.388;6.196;2023-05-07T02:01:14;115208.13;;;-145.32;100.00
14041;BME280;7095;51.388;6.196;2023-05-07T02:03:44;115208.13;;;-145.32;100.00
14041;BME280;7095;51.388;6.196;2023-05-07T02:06:20;115208.13;;;-145.32;100.00
14041;BME280;7095;51.388;6.196;2023-05-07T02:08:51;114949.09;;;-145.32;100.00
14041;BME280;7095;51.388;6.196;2023-05-07T02:11:21;114690.03;;;-145.32;100.00
14041;BME280;7095;51.388;6.196;2023-05-07T02:13:50;114949.09;;;-145.32;100.00
14041;BME280;7095;51.388;6.196;2023-05-07T02:16:20;114431.03;;;-145.32;100.00
14041;BME280;7095;51.388;6.196;2023-05-07T02:18:51;113913.03;;;-145.32;100.00
14041;BME280;7095;51.388;6.196;2023-05-07T02:21:20;113654.06;;;-145.32;100.00
14041;BME280;7095;51.388;6.196;2023-05-07T02:23:48;113654.06;;;-145.32;100.00
14041;BME280;7095;51.388;6.196;2023-05-07T02:26:19;113654.06;;;-145.32;100.00
14041;BME280;7095;51.388;6.196;2023-05-07T02:28:49;113395.13;;;-145.32;100.00
14041;BME280;7095;51.388;6.196;2023-05-07T02:31:17;113395.13;;;-145.32;100.00
14041;BME280;7095;51.388;6.196;2023-05-07T02:33:46;113654.06;;;-145.32;100.00
14041;BME280;7095;51.388;6.196;2023-05-07T02:36:16;113395.13;;;-145.32;100.00
14041;BME280;7095;51.388;6.196;2023-05-07T02:39:00;113654.06;;;-145.32;100.00
14041;BME280;7095;51.388;6.196;2023-05-07T02:41:31;113654.06;;;-145.32;100.00
14041;BME280;7095;51.388;6.196;2023-05-07T02:44:01;113913.03;;;-145.32;100.00
14041;BME280;7095;51.388;6.196;2023-05-07T02:46:30;114172.03;;;-145.32;100.00
14041;BME280;7095;51.388;6.196;2023-05-07T02:49:03;113913.03;;;-145.32;100.00
14041;BME280;7095;51.388;6.196;2023-05-07T02:51:33;113654.06;;;-145.32;100.00
14041;BME280;7095;51.388;6.196;2023-05-07T02:54:08;113654.06;;;-145.32;100.00
14041;BME280;7095;51.388;6.196;2023-05-07T02:56:38;113395.13;;;-145.32;100.00
14041;BME280;7095;51.388;6.196;2023-05-07T02:59:06;113136.22;;;-145.32;100.00
14041;BME280;7095;51.388;6.196;2023-05-07T03:01:39;112877.31;;;-145.32;100.00
14041;BME280;7095;51.388;6.196;2023-05-07T03:04:09;113136.22;;;-145.32;100.00
14041;BME280;7095;51.388;6.196;2023-05-07T03:06:38;113654.06;;;-145.32;100.00
14041;BME280;7095;51.388;6.196;2023-05-07T03:09:07;113654.06;;;-145.32;100.00
14041;BME280;7095;51.388;6.196;2023-05-07T03:11:37;113654.06;;;-145.32;100.00
14041;BME280;7095;51.388;6.196;2023-05-07T03:14:06;113913.03;;;-145.32;100.00
14041;BME280;7095;51.388;6.196;2023-05-07T03:16:35;113913.03;;;-145.32;100.00
14041;BME280;7095;51.388;6.196;2023-05-07T03:19:04;114172.03;;;-145.32;100.00
14041;BME280;7095;51.388;6.196;2023-05-07T03:21:32;114172.03;;;-145.32;100.00
14041;BME280;7095;51.388;6.196;2023-05-07T03:24:01;114172.03;;;-145.32;100.00
14041;BME280;7095;51.388;6.196;2023-05-07T03:26:30;113913.03;;;-145.32;100.00
14041;BME280;7095;51.388;6.196;2023-05-07T03:29:01;113913.03;;;-145.32;100.00
14041;BME280;7095;51.388;6.196;2023-05-07T03:31:29;113654.06;;;-145.32;100.00
14041;BME280;7095;51.388;6.196;2023-05-07T03:34:00;113654.06;;;-145.32;100.00
14041;BME280;7095;51.388;6.196;2023-05-07T03:36:29;113913.03;;;-145.32;100.00
14041;BME280;7095;51.388;6.196;2023-05-07T03:38:58;113913.03;;;-145.32;100.00
14041;BME280;7095;51.388;6.196;2023-05-07T03:41:35;113913.03;;;-145.32;100.00
14041;BME280;7095;51.388;6.196;2023-05-07T03:44:05;114172.03;;;-145.32;100.00
14041;BME280;7095;51.388;6.196;2023-05-07T03:46:34;114431.03;;;-145.32;100.00
14041;BME280;7095;51.388;6.196;2023-05-07T03:49:03;114690.03;;;-145.32;100.00
14041;BME280;7095;51.388;6.196;2023-05-07T03:51:32;114690.03;;;-145.32;100.00
14041;BME280;7095;51.388;6.196;2023-05-07T03:54:04;114949.09;;;-145.32;100.00
14041;BME280;7095;51.388;6.196;2023-05-07T03:56:34;114949.09;;;-145.32;100.00
14041;BME280;7095;51.388;6.196;2023-05-07T03:59:02;114949.09;;;-145.32;100.00
14041;BME280;7095;51.388;6.196;2023-05-07T04:01:36;114690.03;;;-145.32;100.00
14041;BME280;7095;51.388;6.196;2023-05-07T04:04:04;114690.03;;;-145.32;100.00
14041;BME280;7095;51.388;6.196;2023-05-07T04:06:35;114690.03;;;-145.32;100.00
14041;BME280;7095;51.388;6.196;2023-05-07T04:09:04;114949.09;;;-145.32;100.00
14041;BME280;7095;51.388;6.196;2023-05-07T04:11:35;114949.09;;;-145.32;100.00
14041;BME280;7095;51.388;6.196;2023-05-07T04:14:05;114949.09;;;-145.32;100.00
14041;BME280;7095;51.388;6.196;2023-05-07T04:16:36;114949.09;;;-145.32;100.00
14041;BME280;7095;51.388;6.196;2023-05-07T04:19:07;114949.09;;;-145.32;100.00
14041;BME280;7095;51.388;6.196;2023-05-07T04:21:37;115208.13;;;-145.32;100.00
14041;BME280;7095;51.388;6.196;2023-05-07T04:24:07;115467.22;;;-145.32;100.00
14041;BME280;7095;51.388;6.196;2023-05-07T04:26:36;115208.13;;;-145.32;100.00
14041;BME280;7095;51.388;6.196;2023-05-07T04:29:05;115208.13;;;-145.32;100.00
14041;BME280;7095;51.388;6.196;2023-05-07T04:31:37;115467.22;;;-145.32;100.00
14041;BME280;7095;51.388;6.196;2023-05-07T04:34:07;115467.22;;;-145.32;100.00
14041;BME280;7095;51.388;6.196;2023-05-07T04:36:38;115467.22;;;-145.32;100.00
14041;BME280;7095;51.388;6.196;2023-05-07T04:39:10;115467.22;;;-145.32;100.00
14041;BME280;7095;51.388;6.196;2023-05-07T04:41:42;115467.22;;;-145.32;100.00
14041;BME280;7095;51.388;6.196;2023-05-07T04:44:12;115726.31;;;-145.32;100.00
14041;BME280;7095;51.388;6.196;2023-05-07T04:46:44;115726.31;;;-145.32;100.00
14041;BME280;7095;51.388;6.196;2023-05-07T04:49:13;115726.31;;;-145.32;100.00
14041;BME280;7095;51.388;6.196;2023-05-07T04:51:43;115726.31;;;-145.32;100.00
14041;BME280;7095;51.388;6.196;2023-05-07T04:54:14;115726.31;;;-145.32;100.00
14041;BME280;7095;51.388;6.196;2023-05-07T04:56:43;115726.31;;;-145.32;100.00
14041;BME280;7095;51.388;6.196;2023-05-07T04:59:12;115726.31;;;-145.32;100.00
14041;BME280;7095;51.388;6.196;2023-05-07T05:01:42;115726.31;;;-145.32;100.00
14041;BME280;7095;51.388;6.196;2023-05-07T05:04:12;115726.31;;;-145.32;100.00
14041;BME280;7095;51.388;6.196;2023-05-07T05:06:41;115728.34;;;-145.32;100.00
14041;BME280;7095;51.388;6.196;2023-05-07T05:09:13;115726.31;;;-145.32;100.00
14041;BME280;7095;51.388;6.196;2023-05-07T05:11:42;115728.34;;;-145.32;100.00
14041;BME280;7095;51.388;6.196;2023-05-07T05:14:11;115728.34;;;-145.32;100.00
14041;BME280;7095;51.388;6.196;2023-05-07T05:16:40;115728.34;;;-145.32;100.00
14041;BME280;7095;51.388;6.196;2023-05-07T05:19:09;115728.34;;;-145.32;100.00
14041;BME280;7095;51.388;6.196;2023-05-07T05:21:40;115728.34;;;-145.32;100.00
14041;BME280;7095;51.388;6.196;2023-05-07T05:24:10;115728.34;;;-145.32;100.00
14041;BME280;7095;51.388;6.196;2023-05-07T05:26:39;115728.34;;;-145.32;100.00
14041;BME280;7095;51.388;6.196;2023-05-07T05:29:08;115728.34;;;-145.32;100.00
14041;BME280;7095;51.388;6.196;2023-05-07T05:31:40;115728.34;;;-145.32;100.00
14041;BME280;7095;51.388;6.196;2023-05-07T05:34:10;115728.34;;;-145.32;100.00
14041;BME280;7095;51.388;6.196;2023-05-07T05:36:39;115728.34;;;-145.32;100.00
14041;BME280;7095;51.388;6.196;2023-05-07T05:39:09;115726.31;;;-145.32;100.00
14041;BME280;7095;51.388;6.196;2023-05-07T05:41:38;115728.34;;;-145.32;100.00
14041;BME280;7095;51.388;6.196;2023-05-07T05:44:07;115728.34;;;-145.32;100.00
14041;BME280;7095;51.388;6.196;2023-05-07T05:46:36;115728.34;;;-145.32;100.00
14041;BME280;7095;51.388;6.196;2023-05-07T05:49:06;115728.34;;;-145.32;100.00
14041;BME280;7095;51.388;6.196;2023-05-07T05:51:35;115728.34;;;-145.32;100.00
14041;BME280;7095;51.388;6.196;2023-05-07T05:54:04;115728.34;;;-145.32;100.00
14041;BME280;7095;51.388;6.196;2023-05-07T05:56:36;115726.31;;;-145.32;100.00
14041;BME280;7095;51.388;6.196;2023-05-07T05:59:07;115726.31;;;-145.32;100.00
14041;BME280;7095;51.388;6.196;2023-05-07T06:01:36;115726.31;;;-145.32;100.00
14041;BME280;7095;51.388;6.196;2023-05-07T06:04:05;115467.22;;;-145.32;100.00
14041;BME280;7095;51.388;6.196;2023-05-07T06:06:34;115467.22;;;-145.32;100.00
14041;BME280;7095;51.388;6.196;2023-05-07T06:09:03;115208.13;;;-145.32;100.00
14041;BME280;7095;51.388;6.196;2023-05-07T06:11:39;115208.13;;;-145.32;100.00
14041;BME280;7095;51.388;6.196;2023-05-07T06:14:09;115467.22;;;-145.32;100.00
14041;BME280;7095;51.388;6.196;2023-05-07T06:16:38;114949.09;;;-145.32;100.00
14041;BME280;7095;51.388;6.196;2023-05-07T06:19:07;114431.03;;;-145.32;100.00
14041;BME280;7095;51.388;6.196;2023-05-07T06:21:38;114690.03;;;-145.32;100.00
14041;BME280;7095;51.388;6.196;2023-05-07T06:24:08;114690.03;;;-145.32;100.00
14041;BME280;7095;51.388;6.196;2023-05-07T06:26:40;113654.06;;;-145.32;100.00
14041;BME280;7095;51.388;6.196;2023-05-07T06:29:08;113913.03;;;-145.32;100.00
14041;BME280;7095;51.388;6.196;2023-05-07T06:31:40;113654.06;;;-145.32;100.00
14041;BME280;7095;51.388;6.196;2023-05-07T06:34:10;113654.06;;;-145.32;100.00
14041;BME280;7095;51.388;6.196;2023-05-07T06:36:41;114172.03;;;-145.32;100.00
14041;BME280;7095;51.388;6.196;2023-05-07T06:39:36;113654.06;;;-145.32;100.00
14041;BME280;7095;51.388;6.196;2023-05-07T06:42:06;113654.06;;;-145.32;100.00
14041;BME280;7095;51.388;6.196;2023-05-07T06:44:40;114172.03;;;-145.32;100.00
14041;BME280;7095;51.388;6.196;2023-05-07T06:47:12;112877.31;;;-145.32;100.00
14041;BME280;7095;51.388;6.196;2023-05-07T06:49:45;112359.53;;;-145.32;100.00
14041;BME280;7095;51.388;6.196;2023-05-07T06:52:16;111841.88;;;-145.32;100.00
14041;BME280;7095;51.388;6.196;2023-05-07T06:54:47;112359.53;;;-145.32;100.00
14041;BME280;7095;51.388;6.196;2023-05-07T06:57:19;112359.53;;;-145.32;100.00
14041;BME280;7095;51.388;6.196;2023-05-07T06:59:48;111324.28;;;-145.32;100.00
14041;BME280;7095;51.388;6.196;2023-05-07T07:02:16;111065.50;;;-145.32;100.00
14041;BME280;7095;51.388;6.196;2023-05-07T07:04:47;110806.75;;;-145.32;100.00
14041;BME280;7095;51.388;6.196;2023-05-07T07:07:16;110289.28;;;-145.32;100.00
14041;BME280;7095;51.388;6.196;2023-05-07T07:09:47;109771.94;;;-145.32;100.00
14041;BME280;7095;51.388;6.196;2023-05-07T07:12:19;107703.22;;;-145.32;100.00
14041;BME280;7095;51.388;6.196;2023-05-07T07:14:50;107444.69;;;-145.32;100.00
14041;BME280;7095;51.388;6.196;2023-05-07T07:17:22;104860.72;;;-145.32;100.00
14041;BME280;7095;51.388;6.196;2023-05-07T07:19:51;103053.06;;;-145.32;100.00
14041;BME280;7095;51.388;6.196;2023-05-07T07:22:20;103827.66;;;-145.32;100.00
14041;BME280;7095;51.388;6.196;2023-05-07T07:24:49;103827.66;;;-145.32;100.00
14041;BME280;7095;51.388;6.196;2023-05-07T07:27:20;98151.31;;;-145.32;100.00
14041;BME280;7095;51.388;6.196;2023-05-07T07:29:48;97893.50;;;-145.32;100.00
14041;BME280;7095;51.388;6.196;2023-05-07T07:32:19;96347.13;;;-145.32;100.00
14041;BME280;7095;51.388;6.196;2023-05-07T07:34:48;90168.50;;;-145.32;100.00
14041;BME280;7095;51.388;6.196;2023-05-07T07:37:17;85541.78;;;-145.32;100.00
14041;BME280;7095;51.388;6.196;2023-05-07T07:39:46;82974.03;;;-145.32;100.00
14041;BME280;7095;51.388;6.196;2023-05-07T07:42:15;84514.44;;;-145.32;100.00
14041;BME280;7095;51.388;6.196;2023-05-07T07:44:45;81690.91;;;-145.32;100.00
14041;BME280;7095;51.388;6.196;2023-05-07T07:47:15;80664.72;;;-145.32;100.00
14041;BME280;7095;51.388;6.196;2023-05-07T07:49:45;79638.84;;;-145.32;100.00
14041;BME280;7095;51.388;6.196;2023-05-07T07:52:14;75794.56;;;-145.32;100.00
14041;BME280;7095;51.388;6.196;2023-05-07T07:54:44;72978.16;;;-145.32;100.00
14041;BME280;7095;51.388;6.196;2023-05-07T07:57:13;73234.09;;;-145.32;100.00
14041;BME280;7095;51.388;6.196;2023-05-07T07:59:44;68781.88;;;-145.32;100.00
14041;BME280;7095;51.388;6.196;2023-05-07T08:02:15;66635.75;;;-145.32;100.00
14041;BME280;7095;51.388;6.196;2023-05-07T08:04:44;65887.41;;;-145.32;100.00
14041;BME280;7095;51.388;6.196;2023-05-07T08:07:13;66396.25;;;-145.32;100.00
14041;BME280;7095;51.388;6.196;2023-05-07T08:09:45;62269.84;;;-145.32;100.00
14041;BME280;7095;51.388;6.196;2023-05-07T08:12:16;62287.78;;;-145.32;100.00
14041;BME280;7095;51.388;6.196;2023-05-07T08:14:46;61191.69;;;-145.32;100.00
14041;BME280;7095;51.388;6.196;2023-05-07T08:17:16;61331.16;;;-145.32;100.00
14041;BME280;7095;51.388;6.196;2023-05-07T08:19:46;61679.88;;;-145.32;100.00
14041;BME280;7095;51.388;6.196;2023-05-07T08:22:15;59516.34;;;-145.32;100.00
14041;BME280;7095;51.388;6.196;2023-05-07T08:24:46;58596.34;;;-145.32;100.00
14041;BME280;7095;51.388;6.196;2023-05-07T08:27:15;58409.19;;;-145.32;100.00
14041;BME280;7095;51.388;6.196;2023-05-07T08:29:45;58060.78;;;-145.32;100.00
14041;BME280;7095;51.388;6.196;2023-05-07T08:32:17;57616.88;;;-145.32;100.00
14041;BME280;7095;51.388;6.196;2023-05-07T08:34:46;56741.19;;;-145.32;100.00
14041;BME280;7095;51.388;6.196;2023-05-07T08:37:14;57218.81;;;-145.32;100.00
14041;BME280;7095;51.388;6.196;2023-05-07T08:39:44;56932.22;;;-145.32;100.00
14041;BME280;7095;51.388;6.196;2023-05-07T08:42:20;56420.81;;;-145.32;100.00
14041;BME280;7095;51.388;6.196;2023-05-07T08:44:55;56096.50;;;-145.32;100.00
14041;BME280;7095;51.388;6.196;2023-05-07T08:47:29;55758.28;;;-145.32;100.00
14041;BME280;7095;51.388;6.196;2023-05-07T08:50:03;55816.00;;;-145.32;100.00
14041;BME280;7095;51.388;6.196;2023-05-07T08:52:33;55300.75;;;-145.32;100.00
14041;BME280;7095;51.388;6.196;2023-05-07T08:55:04;55191.38;;;-145.32;100.00
14041;BME280;7095;51.388;6.196;2023-05-07T08:57:34;55133.69;;;-145.32;100.00
14041;BME280;7095;51.388;6.196;2023-05-07T09:00:13;55153.56;;;-145.32;100.00
14041;BME280;7095;51.388;6.196;2023-05-07T09:02:43;55260.97;;;-145.32;100.00
14041;BME280;7095;51.388;6.196;2023-05-07T09:05:13;55078.00;;;-145.32;100.00
14041;BME280;7095;51.388;6.196;2023-05-07T09:07:42;55002.41;;;-145.32;100.00
14041;BME280;7095;51.388;6.196;2023-05-07T09:10:13;55129.69;;;-145.32;100.00
14041;BME280;7095;51.388;6.196;2023-05-07T09:12:46;54976.56;;;-145.32;100.00
14041;BME280;7095;51.388;6.196;2023-05-07T09:15:18;54899.00;;;-145.32;100.00
14041;BME280;7095;51.388;6.196;2023-05-07T09:17:46;54829.38;;;-145.32;100.00
14041;BME280;7095;51.388;6.196;2023-05-07T09:20:16;54807.50;;;-145.32;100.00
14041;BME280;7095;51.388;6.196;2023-05-07T09:22:46;54668.28;;;-145.32;100.00
14041;BME280;7095;51.388;6.196;2023-05-07T09:25:28;54712.03;;;-145.32;100.00
14041;BME280;7095;51.388;6.196;2023-05-07T09:27:59;54624.53;;;-145.32;100.00
14041;BME280;7095;51.388;6.196;2023-05-07T09:30:30;54417.72;;;-145.32;100.00
14041;BME280;7095;51.388;6.196;2023-05-07T09:33:03;54523.09;;;-145.32;100.00
14041;BME280;7095;51.388;6.196;2023-05-07T09:35:35;54366.00;;;-145.32;100.00
14041;BME280;7095;51.388;6.196;2023-05-07T09:38:11;54366.00;;;-145.32;100.00
14041;BME280;7095;51.388;6.196;2023-05-07T09:40:42;54401.81;;;-145.32;100.00
14041;BME280;7095;51.388;6.196;2023-05-07T09:43:13;54266.59;;;-145.32;100.00
14041;BME280;7095;51.388;6.196;2023-05-07T09:45:50;54169.16;;;-145.32;100.00
14041;BME280;7095;51.388;6.196;2023-05-07T09:48:22;54218.84;;;-145.32;100.00
14041;BME280;7095;51.388;6.196;2023-05-07T09:50:55;54187.03;;;-145.32;100.00
14041;BME280;7095;51.388;6.196;2023-05-07T09:53:30;54123.41;;;-145.32;100.00
14041;BME280;7095;51.388;6.196;2023-05-07T09:56:02;54115.47;;;-145.32;100.00
14041;BME280;7095;51.388;6.196;2023-05-07T09:58:34;53972.28;;;-145.32;100.00
14041;BME280;7095;51.388;6.196;2023-05-07T10:01:10;53960.38;;;-145.32;100.00
14041;BME280;7095;51.388;6.196;2023-05-07T10:03:41;53914.63;;;-145.32;100.00
14041;BME280;7095;51.388;6.196;2023-05-07T10:06:12;53860.94;;;-145.32;100.00
14041;BME280;7095;51.388;6.196;2023-05-07T10:08:42;53892.75;;;-145.32;100.00
14041;BME280;7095;51.388;6.196;2023-05-07T10:11:13;53829.13;;;-145.32;100.00
14041;BME280;7095;51.388;6.196;2023-05-07T10:13:44;53849.03;;;-145.32;100.00
14041;BME280;7095;51.388;6.196;2023-05-07T10:16:17;53749.59;;;-145.32;100.00
14041;BME280;7095;51.388;6.196;2023-05-07T10:18:50;53664.13;;;-145.32;100.00
14041;BME280;7095;51.388;6.196;2023-05-07T10:21:23;53687.97;;;-145.32;100.00
14041;BME280;7095;51.388;6.196;2023-05-07T10:23:59;53678.03;;;-145.32;100.00
14041;BME280;7095;51.388;6.196;2023-05-07T10:26:32;53682.00;;;-145.32;100.00
14041;BME280;7095;51.388;6.196;2023-05-07T10:29:07;53622.38;;;-145.32;100.00
14041;BME280;7095;51.388;6.196;2023-05-07T10:31:52;53584.59;;;-145.32;100.00
14041;BME280;7095;51.388;6.196;2023-05-07T10:34:29;53594.53;;;-145.32;100.00
14041;BME280;7095;51.388;6.196;2023-05-07T10:36:59;53540.84;;;-145.32;100.00
14041;BME280;7095;51.388;6.196;2023-05-07T10:39:29;53556.75;;;-145.32;100.00
14041;BME280;7095;51.388;6.196;2023-05-07T10:42:08;53534.88;;;-145.32;100.00
14041;BME280;7095;51.388;6.196;2023-05-07T10:44:39;53580.63;;;-145.32;100.00
14041;BME280;7095;51.388;6.196;2023-05-07T10:47:17;53582.59;;;-145.32;100.00
14041;BME280;7095;51.388;6.196;2023-05-07T10:50:21;53471.28;;;-145.32;100.00
14041;BME280;7095;51.388;6.196;2023-05-07T10:53:25;53499.09;;;-145.32;100.00
14041;BME280;7095;51.388;6.196;2023-05-07T10:56:26;53513.03;;;-145.32;100.00
14041;BME280;7095;51.388;6.196;2023-05-07T10:59:33;53489.16;;;-145.32;100.00
14041;BME280;7095;51.388;6.196;2023-05-07T11:02:21;53518.97;;;-145.32;100.00
14041;BME280;7095;51.388;6.196;2023-05-07T11:05:19;53447.41;;;-145.32;100.00
14041;BME280;7095;51.388;6.196;2023-05-07T11:07:54;53499.09;;;-145.32;100.00
14041;BME280;7095;51.388;6.196;2023-05-07T11:10:50;53457.34;;;-145.32;100.00
14041;BME280;7095;51.388;6.196;2023-05-07T11:13:48;53471.28;;;-145.32;100.00
14041;BME280;7095;51.388;6.196;2023-05-07T11:16:34;53447.41;;;-145.32;100.00
14041;BME280;7095;51.388;6.196;2023-05-07T11:19:51;53407.66;;;-145.32;100.00
14041;BME280;7095;51.388;6.196;2023-05-07T11:22:46;53431.50;;;-145.32;100.00
14041;BME280;7095;51.388;6.196;2023-05-07T11:25:21;53395.72;;;-145.32;100.00
14041;BME280;7095;51.388;6.196;2023-05-07T11:28:04;53403.69;;;-145.32;100.00
14041;BME280;7095;51.388;6.196;2023-05-07T11:30:34;53427.53;;;-145.32;100.00
14041;BME280;7095;51.388;6.196;2023-05-07T11:33:05;53411.63;;;-145.32;100.00
14041;BME280;7095;51.388;6.196;2023-05-07T11:35:36;53373.84;;;-145.32;100.00
14041;BME280;7095;51.388;6.196;2023-05-07T11:38:08;53413.63;;;-145.32;100.00
14041;BME280;7095;51.388;6.196;2023-05-07T11:40:49;53399.69;;;-145.32;95.70
14041;BME280;7095;51.388;6.196;2023-05-07T11:43:17;53399.69;;;-145.32;96.23
14041;BME280;7095;51.388;6.196;2023-05-07T11:45:46;53401.69;;;-145.32;97.20
14041;BME280;7095;51.388;6.196;2023-05-07T11:48:16;53411.63;;;-145.32;94.94
14041;BME280;7095;51.388;6.196;2023-05-07T11:50:53;53391.75;;;-145.32;86.23
14041;BME280;7095;51.388;6.196;2023-05-07T11:53:24;53409.63;;;-145.32;94.13
14041;BME280;7095;51.388;6.196;2023-05-07T11:55:54;53391.75;;;-145.32;99.00
14041;BME280;7095;51.388;6.196;2023-05-07T11:58:24;53371.88;;;-145.32;97.22
14041;BME280;7095;51.388;6.196;2023-05-07T12:00:54;53411.63;;;-145.32;98.07
14041;BME280;7095;51.388;6.196;2023-05-07T12:03:23;53405.66;;;-145.32;98.47
14041;BME280;7095;51.388;6.196;2023-05-07T12:05:53;53419.59;;;-145.32;98.96
14041;BME280;7095;51.388;6.196;2023-05-07T12:08:22;53391.75;;;-145.32;96.48
14041;BME280;7095;51.388;6.196;2023-05-07T12:10:51;53377.84;;;-145.32;94.89
14041;BME280;7095;51.388;6.196;2023-05-07T12:13:22;53383.78;;;-145.32;93.63
14041;BME280;7095;51.388;6.196;2023-05-07T12:15:51;53379.81;;;-145.32;95.13
14041;BME280;7095;51.388;6.196;2023-05-07T12:18:20;53389.75;;;-145.32;97.13
14041;BME280;7095;51.388;6.196;2023-05-07T12:20:49;53361.94;;;-145.32;96.05
14041;BME280;7095;51.388;6.196;2023-05-07T12:23:21;53375.84;;;-145.32;88.26
14041;BME280;7095;51.388;6.196;2023-05-07T12:25:49;53405.66;;;-145.32;91.94
14041;BME280;7095;51.388;6.196;2023-05-07T12:28:19;53375.84;;;-145.32;96.67
14041;BME280;7095;51.388;6.196;2023-05-07T12:30:49;53397.72;;;-145.32;94.30
14041;BME280;7095;51.388;6.196;2023-05-07T12:33:20;53383.78;;;-145.32;93.30
14041;BME280;7095;51.388;6.196;2023-05-07T12:35:54;53387.78;;;-145.32;93.86
14041;BME280;7095;51.388;6.196;2023-05-07T12:38:24;53375.84;;;-145.32;90.23
14041;BME280;7095;51.388;6.196;2023-05-07T12:40:54;53387.78;;;-145.32;91.27
14041;BME280;7095;51.388;6.196;2023-05-07T12:43:25;53352.00;;;-145.32;86.38
14041;BME280;7095;51.388;6.196;2023-05-07T12:45:55;53363.91;;;-145.32;90.00
14041;BME280;7095;51.388;6.196;2023-05-07T12:48:25;53385.78;;;-145.32;90.65
14041;BME280;7095;51.388;6.196;2023-05-07T12:50:54;53379.81;;;-145.32;94.50
14041;BME280;7095;51.388;6.196;2023-05-07T12:53:26;53397.72;;;-145.32;94.46
14041;BME280;7095;51.388;6.196;2023-05-07T12:55:57;53411.63;;;-145.32;93.66
14041;BME280;7095;51.388;6.196;2023-05-07T12:58:28;53395.72;;;-145.32;93.33